Time;durP1;ratioP1;P1;durP2;ratioP2;P2;SDS_P1;SDS_P2;PMS_P1;PMS_P2;Temp;Humidity;BMP_temperature;BMP_pressure;BME280_temperature;BME280_humidity;BME280_pressure;Samples;Min_cycle;Max_cycle;Signal;HPM_P1;HPM_P2
2022/03/18 00:00:16;;;;;;;32.60;20.08;;;51.70;2227.20;;;;;;4956241;29;20026;-76
2022/03/18 00:02:42;;;;;;;31.50;21.83;;;51.70;2227.20;;;;;;4966954;28;20023;-77
2022/03/18 00:05:08;;;;;;;32.65;21.35;;;77.30;2227.20;;;;;;4973692;28;20034;-77
2022/03/18 00:07:34;;;;;;;33.22;21.25;;;;;;;;;;4978113;28;20118;-76
2022/03/18 00:10:00;;;;;;;35.38;21.60;;;51.70;2227.20;;;;;;4973967;28;20054;-76
2022/03/18 00:12:26;;;;;;;33.60;21.83;;;51.70;2227.20;;;;;;4956219;28;20061;-77
2022/03/18 00:14:52;;;;;;;35.70;22.42;;;51.70;2227.20;;;;;;4976096;28;20042;-76
2022/03/18 00:17:17;;;;;;;37.95;22.00;;;51.70;2227.20;;;;;;4973548;28;20027;-77
2022/03/18 00:19:43;;;;;;;31.02;18.88;;;51.70;2227.20;;;;;;4973729;28;20197;-77
2022/03/18 00:22:10;;;;;;;31.50;19.73;;;51.70;2227.20;;;;;;4975511;28;20019;-76
2022/03/18 00:24:46;;;;;;;29.20;18.90;;;51.70;2227.20;;;;;;4974707;28;20033;-77
2022/03/18 00:27:12;;;;;;;30.25;21.15;;;51.60;2227.20;;;;;;4978021;28;20067;-76
2022/03/18 00:29:37;;;;;;;28.95;20.20;;;51.60;2227.20;;;;;;4973714;28;20058;-76
2022/03/18 00:32:04;;;;;;;30.95;20.35;;;51.60;2227.20;;;;;;4973612;28;20035;-77
2022/03/18 00:34:37;;;;;;;32.95;20.67;;;51.60;2227.20;;;;;;4976350;28;20078;-77
2022/03/18 00:37:04;;;;;;;;;;;51.60;2227.20;;;;;;4963720;28;20090;-77
2022/03/18 00:39:30;;;;;;;34.33;21.88;;;51.70;2227.20;;;;;;4973338;28;19906;-77
2022/03/18 00:41:55;;;;;;;29.73;19.05;;;51.60;2227.20;;;;;;4984222;28;20102;-76
2022/03/18 00:44:25;;;;;;;33.40;22.30;;;51.60;2227.20;;;;;;4976826;28;20034;-76
2022/03/18 00:46:52;;;;;;;34.50;20.98;;;51.60;2227.20;;;;;;4958876;28;20078;-77
2022/03/18 00:52:26;;;;;;;28.90;18.45;;;51.70;2227.20;;;;;;4977099;28;20507;-77
2022/03/18 00:54:52;;;;;;;30.42;19.98;;;51.70;2227.20;;;;;;4976937;28;20113;-76
2022/03/18 00:57:17;;;;;;;29.50;20.55;;;51.70;2227.20;;;;;;4976866;28;20110;-77
2022/03/18 00:59:43;;;;;;;29.45;18.80;;;51.60;2227.20;;;;;;4976197;28;20031;-76
2022/03/18 01:02:53;;;;;;;28.60;17.00;;;51.60;2227.20;;;;;;4963252;28;20052;-77
2022/03/18 01:05:21;;;;;;;28.45;18.48;;;51.50;2227.20;;;;;;4941897;28;20050;-77
2022/03/18 01:07:47;;;;;;;29.20;18.98;;;51.60;2227.20;;;;;;4961896;28;20070;-76
2022/03/18 01:10:13;;;;;;;26.50;17.00;;;;;;;;;;4977438;28;20023;-77
2022/03/18 01:12:38;;;;;;;34.47;20.17;;;51.60;2227.20;;;;;;4976682;28;20512;-76
2022/03/18 01:15:05;;;;;;;31.17;19.13;;;51.50;2227.20;;;;;;4976597;28;20062;-76
2022/03/18 01:17:31;;;;;;;26.50;17.55;;;51.50;2227.20;;;;;;4984410;28;20026;-76
2022/03/18 01:19:57;;;;;;;28.10;18.65;;;51.40;2227.20;;;;;;4958757;28;20023;-77
2022/03/18 01:22:23;;;;;;;31.73;19.05;;;51.40;2227.20;;;;;;4975365;28;20059;-76
2022/03/18 01:24:49;;;;;;;30.00;19.73;;;51.40;2227.20;;;;;;4975990;28;20480;-77
2022/03/18 01:27:15;;;;;;;26.23;18.02;;;51.40;2227.20;;;;;;4979923;28;20076;-76
2022/03/18 01:29:41;;;;;;;30.77;19.80;;;51.40;2227.20;;;;;;4976473;28;20106;-76
2022/03/18 01:32:07;;;;;;;28.67;19.02;;;51.30;2227.20;;;;;;4975950;28;20186;-76
2022/03/18 01:34:33;;;;;;;24.52;17.70;;;51.30;2227.20;;;;;;4981521;28;20031;-77
2022/03/18 01:36:58;;;;;;;28.55;19.02;;;51.30;2227.20;;;;;;4954718;28;20520;-76
2022/03/18 01:39:24;;;;;;;28.27;19.40;;;51.20;2227.20;;;;;;4956682;29;20038;-76
2022/03/18 01:41:51;;;;;;;27.92;18.42;;;51.20;2227.20;;;;;;4963171;29;20051;-76
2022/03/18 01:44:19;;;;;;;25.75;17.60;;;51.20;2227.20;;;;;;4959634;29;20168;-76
2022/03/18 01:46:44;;;;;;;30.80;20.40;;;51.20;2227.20;;;;;;4956271;29;20405;-76
2022/03/18 01:49:10;;;;;;;27.92;17.98;;;51.30;2227.20;;;;;;4957195;29;20413;-77
2022/03/18 01:51:36;;;;;;;30.25;18.60;;;51.30;2227.20;;;;;;4958680;28;20101;-76
2022/03/18 01:56:47;;;;;;;27.95;18.58;;;51.40;2227.20;;;;;;4959847;29;20061;-77
2022/03/18 01:59:14;;;;;;;26.00;18.05;;;51.50;2227.20;;;;;;4955894;29;20019;-76
2022/03/18 02:01:40;;;;;;;26.25;18.23;;;51.40;2227.20;;;;;;4965886;29;20019;-77
2022/03/18 02:04:07;;;;;;;25.02;16.10;;;51.50;2227.20;;;;;;4939797;29;20027;-77
2022/03/18 02:06:33;;;;;;;22.30;16.15;;;51.50;2227.20;;;;;;4957932;28;20070;-76
2022/03/18 02:08:58;;;;;;;24.50;15.23;;;51.50;2227.20;;;;;;4955723;29;20040;-77
2022/03/18 02:11:25;;;;;;;30.17;16.27;;;51.50;2227.20;;;;;;4957472;28;20488;-76
2022/03/18 02:13:57;;;;;;;20.70;14.73;;;51.50;2227.20;;;;;;4955821;29;20489;-77
2022/03/18 02:16:23;;;;;;;20.50;14.95;;;51.50;2227.20;;;;;;4959078;28;20027;-78
2022/03/18 02:18:49;;;;;;;26.50;15.73;;;51.50;2227.20;;;;;;4955634;29;20465;-77
2022/03/18 02:21:15;;;;;;;22.25;15.00;;;51.50;2227.20;;;;;;4956955;29;20374;-77
2022/03/18 02:23:43;;;;;;;23.60;16.10;;;51.60;2227.20;;;;;;4955779;29;20529;-77
2022/03/18 02:26:13;;;;;;;20.85;15.60;;;51.50;2227.20;;;;;;4955480;28;20071;-76
2022/03/18 02:28:39;;;;;;;19.95;14.60;;;51.50;2227.20;;;;;;4974480;28;20030;-76
2022/03/18 02:31:05;;;;;;;18.58;14.15;;;51.50;2227.20;;;;;;4974447;28;20041;-76
2022/03/18 02:33:31;;;;;;;23.50;14.85;;;51.50;2227.20;;;;;;4973834;28;20519;-76
2022/03/18 02:35:56;;;;;;;21.83;14.88;;;51.50;2227.20;;;;;;4955437;29;20023;-77
2022/03/18 02:38:23;;;;;;;23.33;15.75;;;51.50;2227.20;;;;;;4970447;28;20500;-77
2022/03/18 02:40:48;;;;;;;23.83;16.38;;;51.60;2227.20;;;;;;4974794;28;20105;-77
2022/03/18 02:43:15;;;;;;;19.98;14.95;;;51.50;2227.20;;;;;;4973631;28;20118;-76
2022/03/18 02:45:40;;;;;;;22.80;14.73;;;51.60;2227.20;;;;;;4960710;28;20035;-76
2022/03/18 02:48:06;;;;;;;22.08;14.80;;;51.60;2227.20;;;;;;4956102;29;20042;-76
2022/03/18 02:50:33;;;;;;;21.33;15.75;;;51.60;2227.20;;;;;;4961942;28;20049;-75
2022/03/18 02:52:59;;;;;;;20.13;15.00;;;51.60;2227.20;;;;;;4974969;28;20057;-76
2022/03/18 02:55:26;;;;;;;23.50;15.15;;;51.60;2227.20;;;;;;4973737;28;20066;-75
2022/03/18 02:57:52;;;;;;;22.63;15.98;;;51.70;2227.20;;;;;;4957817;29;20028;-76
2022/03/18 03:00:18;;;;;;;23.02;14.18;;;51.60;2227.20;;;;;;4956355;28;20476;-77
2022/03/18 03:02:43;;;;;;;22.20;14.02;;;51.70;2227.20;;;;;;4975566;28;20019;-75
2022/03/18 03:07:59;;;;;;;22.92;14.90;;;51.70;2227.20;;;;;;4966296;28;20069;-76
2022/03/18 03:10:29;;;;;;;20.00;14.25;;;51.70;2227.20;;;;;;4974175;28;20038;-76
2022/03/18 03:13:00;;;;;;;23.27;14.88;;;51.70;2227.20;;;;;;4974284;28;20023;-77
2022/03/18 03:15:27;;;;;;;27.08;15.75;;;51.70;2227.20;;;;;;4974144;28;20108;-77
2022/03/18 03:17:53;;;;;;;22.23;14.55;;;51.70;2227.20;;;;;;4955114;28;20565;-77
2022/03/18 03:20:23;;;;;;;23.98;15.00;;;51.70;2227.20;;;;;;4976968;28;20035;-77
2022/03/18 03:22:48;;;;;;;19.95;14.82;;;51.80;2227.20;;;;;;4974068;28;20535;-76
2022/03/18 03:25:14;;;;;;;21.98;14.40;;;51.80;2227.20;;;;;;4974313;28;20491;-76
2022/03/18 03:27:40;;;;;;;22.55;15.23;;;51.80;2227.20;;;;;;4970673;28;20473;-77
2022/03/18 03:30:08;;;;;;;22.85;15.82;;;51.70;2227.20;;;;;;4973981;28;20026;-77
2022/03/18 03:32:43;;;;;;;19.55;14.98;;;51.80;2227.20;;;;;;4977193;28;20033;-77
2022/03/18 03:35:10;;;;;;;20.92;14.23;;;51.80;2227.20;;;;;;4973048;28;20147;-76
2022/03/18 03:37:36;;;;;;;19.83;14.02;;;51.80;2227.20;;;;;;4955053;28;20047;-76
2022/03/18 03:40:04;;;;;;;21.23;14.20;;;51.80;2227.20;;;;;;4973667;28;20052;-76
2022/03/18 03:42:30;;;;;;;19.85;14.65;;;51.80;2227.20;;;;;;4976720;28;20039;-76
2022/03/18 03:45:02;;;;;;;18.33;13.00;;;51.90;2227.20;;;;;;4976457;28;20361;-77
2022/03/18 03:47:28;;;;;;;19.60;14.23;;;51.90;2227.20;;;;;;4977208;28;20110;-76
2022/03/18 03:49:54;;;;;;;21.88;12.80;;;51.90;2227.20;;;;;;4961911;28;20360;-77
2022/03/18 03:52:23;;;;;;;18.67;13.70;;;51.80;2227.20;;;;;;4959336;29;20019;-76
2022/03/18 03:54:49;;;;;;;17.02;11.38;;;51.90;2227.20;;;;;;4940330;29;20038;-76
2022/03/18 03:57:15;;;;;;;19.60;13.75;;;51.80;2227.20;;;;;;4957534;28;20408;-77
2022/03/18 03:59:41;;;;;;;20.40;14.20;;;51.80;2227.20;;;;;;4960976;28;20022;-76
2022/03/18 04:02:10;;;;;;;19.30;13.30;;;51.80;2227.20;;;;;;4955608;29;20465;-77
2022/03/18 04:04:36;;;;;;;23.30;13.32;;;51.80;2227.20;;;;;;4950125;28;20045;-76
2022/03/18 04:07:02;;;;;;;23.08;14.15;;;51.70;2227.20;;;;;;4956081;28;20047;-77
2022/03/18 04:09:34;;;;;;;21.13;13.57;;;51.70;2227.20;;;;;;4973410;28;20047;-76
2022/03/18 04:11:59;;;;;;;19.42;13.15;;;51.70;2227.20;;;;;;4955100;28;20031;-76
2022/03/18 04:14:25;;;;;;;18.33;12.68;;;51.60;2227.20;;;;;;4974970;28;20034;-77
2022/03/18 04:16:51;;;;;;;20.17;12.68;;;51.70;2227.20;;;;;;4977348;28;20061;-76
2022/03/18 04:19:18;;;;;;;17.45;11.98;;;51.60;2227.20;;;;;;4958020;29;20035;-77
2022/03/18 04:21:44;;;;;;;18.50;12.38;;;51.60;2227.20;;;;;;4969827;28;20037;-76
2022/03/18 04:24:10;;;;;;;19.52;11.80;;;51.60;2227.20;;;;;;4959789;28;20122;-76
2022/03/18 04:26:36;;;;;;;15.95;11.43;;;51.70;2227.20;;;;;;4987431;28;20026;-76
2022/03/18 04:29:01;;;;;;;17.42;11.65;;;51.70;2227.20;;;;;;4976899;28;20023;-76
2022/03/18 04:31:27;;;;;;;16.92;11.27;;;51.70;2227.20;;;;;;4981599;28;20053;-76
2022/03/18 04:33:53;;;;;;;17.73;10.30;;;51.70;2227.20;;;;;;4977020;28;20053;-77
2022/03/18 04:36:19;;;;;;;20.73;11.18;;;51.60;2227.20;;;;;;4979537;28;20484;-76
2022/03/18 04:38:44;;;;;;;15.30;10.18;;;51.70;2227.20;;;;;;4977047;28;20037;-76
2022/03/18 04:41:10;;;;;;;17.60;10.40;;;51.60;2227.20;;;;;;4977577;28;20477;-76
2022/03/18 04:43:36;;;;;;;17.95;10.57;;;51.70;2227.20;;;;;;4974678;28;20031;-76
2022/03/18 04:46:03;;;;;;;16.15;11.13;;;51.70;2227.20;;;;;;4984974;28;20039;-77
2022/03/18 04:48:29;;;;;;;15.30;11.07;;;51.60;2227.20;;;;;;4956871;28;20084;-77
2022/03/18 04:50:55;;;;;;;15.23;10.48;;;51.70;2227.20;;;;;;4976838;28;20035;-76
2022/03/18 04:53:20;;;;;;;16.85;10.95;;;51.70;2227.20;;;;;;4980272;28;20491;-76
2022/03/18 04:55:46;;;;;;;14.55;10.63;;;51.80;2227.20;;;;;;4980178;28;20077;-76
2022/03/18 04:58:12;;;;;;;19.77;12.10;;;51.80;2227.20;;;;;;4976690;28;20035;-76
2022/03/18 05:00:37;;;;;;;20.73;10.88;;;51.80;2227.20;;;;;;4984932;28;20170;-77
2022/03/18 05:03:03;;;;;;;16.70;11.27;;;51.90;2227.20;;;;;;4962260;28;20473;-77
2022/03/18 05:05:29;;;;;;;16.88;10.15;;;51.90;2227.20;;;;;;4956971;28;20118;-76
2022/03/18 05:07:55;;;;;;;15.75;10.52;;;51.90;2227.20;;;;;;4972690;28;20037;-76
2022/03/18 05:10:26;;;;;;;14.20;10.32;;;51.90;2227.20;;;;;;4978767;28;20037;-76
2022/03/18 05:13:02;;;;;;;17.45;9.48;;;51.90;2227.20;;;;;;4963528;28;20066;-76
2022/03/18 05:15:32;;;;;;;15.45;9.35;;;51.90;2227.20;;;;;;4979600;28;20026;-77
2022/03/18 05:17:57;;;;;;;15.13;8.82;;;51.90;2227.20;;;;;;4958041;28;20038;-76
2022/03/18 05:20:23;;;;;;;13.38;9.18;;;51.80;2227.20;;;;;;4976219;28;20041;-76
2022/03/18 05:22:51;;;;;;;11.73;8.63;;;51.80;2227.20;;;;;;4979620;28;20102;-75
2022/03/18 05:25:17;;;;;;;14.80;9.63;;;51.90;2227.20;;;;;;4974111;28;20073;-76
2022/03/18 05:27:58;;;;;;;16.05;8.68;;;52.00;2227.20;;;;;;4975671;28;20027;-76
2022/03/18 05:30:24;;;;;;;15.85;9.63;;;52.10;2227.20;;;;;;4977006;28;20027;-76
2022/03/18 05:32:50;;;;;;;18.52;8.93;;;52.00;2227.20;;;;;;4966820;28;20477;-76
2022/03/18 05:35:18;;;;;;;14.85;8.57;;;52.10;2227.20;;;;;;4960114;28;20062;-76
2022/03/18 05:37:44;;;;;;;15.25;9.25;;;52.10;2227.20;;;;;;4962214;28;20019;-75
2022/03/18 05:40:10;;;;;;;16.05;10.38;;;52.10;2227.20;;;;;;4974486;28;20026;-77
2022/03/18 05:42:36;;;;;;;12.93;8.68;;;51.90;2227.20;;;;;;4974700;28;20053;-76
2022/03/18 05:45:02;;;;;;;13.07;8.57;;;51.90;2227.20;;;;;;4974343;28;20079;-76
2022/03/18 05:47:29;;;;;;;11.95;8.05;;;51.90;2227.20;;;;;;4972853;28;20031;-76
2022/03/18 05:49:56;;;;;;;13.77;8.80;;;51.90;2227.20;;;;;;4975096;28;20764;-75
2022/03/18 05:52:22;;;;;;;21.05;12.43;;;52.00;2227.20;;;;;;4975605;28;20089;-76
2022/03/18 05:54:47;;;;;;;13.05;9.07;;;52.10;2227.20;;;;;;4961041;28;20035;-76
2022/03/18 05:57:13;;;;;;;15.57;10.57;;;52.10;2227.20;;;;;;4955927;29;20104;-75
2022/03/18 05:59:39;;;;;;;11.82;8.30;;;52.10;2227.20;;;;;;4956231;29;20039;-76
2022/03/18 06:02:05;;;;;;;15.50;8.65;;;76.80;2227.20;;;;;;4958034;29;20023;-76
2022/03/18 06:04:31;;;;;;;11.38;8.15;;;76.90;2227.20;;;;;;4969068;28;20042;-76
2022/03/18 06:07:11;;;;;;;25.85;16.17;;;76.90;2227.20;;;;;;4977823;28;20049;-76
2022/03/18 06:12:23;;;;;;;15.02;8.85;;;77.10;2227.20;;;;;;4974777;28;20069;-76
2022/03/18 06:14:49;;;;;;;11.40;8.43;;;77.10;2227.20;;;;;;4975265;28;20070;-76
2022/03/18 06:17:15;;;;;;;14.07;8.75;;;77.30;2227.20;;;;;;4957653;28;20043;-76
2022/03/18 06:19:41;;;;;;;16.73;8.65;;;77.30;2227.20;;;;;;4973181;28;20105;-76
2022/03/18 06:22:08;;;;;;;13.57;9.15;;;102.50;2227.20;;;;;;4952424;29;20027;-77
2022/03/18 06:24:34;;;;;;;15.20;9.80;;;77.30;2227.20;;;;;;4955855;29;20090;-77
2022/03/18 06:27:01;;;;;;;20.70;11.48;;;77.40;2227.20;;;;;;4956674;29;20491;-76
2022/03/18 06:29:28;;;;;;;17.88;13.63;;;77.40;2227.20;;;;;;4957941;28;20031;-76
2022/03/18 06:31:56;;;;;;;19.67;13.43;;;77.50;2227.20;;;;;;4956678;28;20038;-76
2022/03/18 06:34:22;;;;;;;16.20;9.10;;;77.50;2227.20;;;;;;4964099;28;20031;-77
2022/03/18 06:36:52;;;;;;;22.15;7.43;;;77.40;2227.20;;;;;;4955538;29;20023;-77
2022/03/18 06:39:19;;;;;;;34.47;19.55;;;77.40;2227.20;;;;;;4957061;28;20505;-76
2022/03/18 06:41:46;;;;;;;18.20;9.52;;;77.40;2227.20;;;;;;4974289;28;20054;-77
2022/03/18 06:44:12;;;;;;;11.63;8.02;;;77.50;2227.20;;;;;;4973102;28;20109;-76
2022/03/18 06:46:38;;;;;;;13.60;8.55;;;77.60;2227.20;;;;;;4973961;28;20038;-76
2022/03/18 06:49:05;;;;;;;10.85;7.82;;;77.60;2227.20;;;;;;4957718;28;20036;-76
2022/03/18 06:51:31;;;;;;;14.43;9.00;;;102.40;2227.20;;;;;;4972426;28;20075;-75
2022/03/18 06:53:57;;;;;;;13.90;9.02;;;102.40;2227.20;;;;;;4974685;28;20031;-75
2022/03/18 06:56:25;;;;;;;18.73;9.73;;;102.40;2227.20;;;;;;4965918;28;20139;-76
2022/03/18 06:58:51;;;;;;;13.95;8.65;;;102.40;2227.20;;;;;;4970767;28;20027;-75
2022/03/18 07:01:17;;;;;;;20.25;12.43;;;102.40;2227.20;;;;;;4973840;28;20038;-75
2022/03/18 07:03:43;;;;;;;30.95;11.13;;;102.60;2227.20;;;;;;4974433;28;20393;-76
2022/03/18 07:06:08;;;;;;;13.82;8.60;;;102.70;2227.20;;;;;;4974397;28;20046;-75
2022/03/18 07:08:34;;;;;;;15.82;8.00;;;102.80;2227.20;;;;;;4973470;28;20054;-76
2022/03/18 07:11:02;;;;;;;12.20;8.30;;;102.90;2227.20;;;;;;4956945;28;20061;-77
2022/03/18 07:13:29;;;;;;;17.15;7.88;;;103.00;2227.20;;;;;;4977294;28;20022;-76
2022/03/18 07:15:55;;;;;;;9.90;7.10;;;103.30;2227.20;;;;;;4972980;28;20099;-72
2022/03/18 07:18:21;;;;;;;12.75;8.05;;;128.30;2227.20;;;;;;4971868;28;20563;-72
2022/03/18 07:20:47;;;;;;;18.40;7.90;;;128.70;2201.60;;;;;;4952010;29;20034;-71
2022/03/18 07:23:15;;;;;;;14.85;8.10;;;128.80;2150.40;;;;;;4954415;29;20079;-71
2022/03/18 07:25:46;;;;;;;14.50;8.00;;;128.90;2150.40;;;;;;4937581;29;20051;-71
2022/03/18 07:28:14;;;;;;;12.98;8.15;;;;;;;;;;4954865;29;20023;-73
2022/03/18 07:30:41;;;;;;;17.42;8.07;;;;;;;;;;4968532;28;20054;-72
2022/03/18 07:33:07;;;;;;;15.48;8.57;;;;;;;;;;4954471;29;20098;-71
2022/03/18 07:35:36;;;;;;;14.95;8.70;;;;;;;;;;4962906;28;20143;-72
2022/03/18 07:38:03;;;;;;;14.82;8.60;;;;;;;;;;4973031;28;20468;-71
2022/03/18 07:40:29;;;;;;;16.35;8.20;;;179.60;1971.20;;;;;;4968292;28;20031;-72
2022/03/18 07:42:58;;;;;;;11.50;7.95;;;179.70;1971.20;;;;;;4970237;28;20492;-72
2022/03/18 07:45:45;;;;;;;11.88;7.35;;;;;;;;;;4961511;28;20424;-73
2022/03/18 07:48:10;;;;;;;17.83;8.20;;;179.50;1894.40;;;;;;4972134;28;20062;-73
2022/03/18 07:50:42;;;;;;;13.20;8.25;;;179.30;1894.40;;;;;;4969537;28;20121;-71
2022/03/18 07:53:09;;;;;;;12.80;8.35;;;;;;;;;;4976572;28;20093;-71
2022/03/18 07:55:37;;;;;;;14.73;9.23;;;179.80;2252.80;;;;;;4948721;28;20051;-73
2022/03/18 07:58:06;;;;;;;14.25;8.73;;;179.90;1843.20;;;;;;4966378;28;20023;-72
2022/03/18 08:00:32;;;;;;;13.27;9.05;;;205.10;1817.60;;;;;;4957443;28;20031;-71
2022/03/18 08:02:58;;;;;;;49.00;31.10;;;;;;;;;;4944512;29;20078;-72
2022/03/18 08:05:24;;;;;;;17.77;9.10;;;;;;;;;;4965710;28;20039;-77
2022/03/18 08:07:56;;;;;;;13.43;8.57;;;;;;;;;;4947561;29;20497;-76
2022/03/18 08:10:22;;;;;;;13.10;8.73;;;;;;;;;;4977461;28;20055;-73
2022/03/18 08:12:51;;;;;;;14.10;8.98;;;;;;;;;;4967512;28;20019;-75
2022/03/18 08:15:19;;;;;;;11.73;8.35;;;;;;;;;;4972795;28;20027;-75
2022/03/18 08:17:46;;;;;;;16.85;8.25;;;;;;;;;;4954522;28;20062;-75
2022/03/18 08:20:13;;;;;;;15.10;9.13;;;;;;;;;;4975793;28;20087;-75
2022/03/18 08:22:39;;;;;;;13.77;8.80;;;;;;;;;;4975677;28;20015;-77
2022/03/18 08:25:06;;;;;;;12.40;8.52;;;230.40;1766.40;;;;;;4987061;28;20031;-73
2022/03/18 08:27:33;;;;;;;10.30;7.75;;;;;;;;;;4982318;28;20022;-74
2022/03/18 08:30:00;;;;;;;11.48;8.38;;;;;;;;;;4962793;28;20405;-72
2022/03/18 08:32:27;;;;;;;14.50;8.80;;;;;;;;;;4970840;28;20122;-75
2022/03/18 08:34:56;;;;;;;12.27;8.52;;;;;;;;;;4964160;28;20409;-76
2022/03/18 08:40:07;;;;;;;13.13;9.32;;;;;;;;;;4976916;28;20045;-76
2022/03/18 08:42:34;;;;;;;16.52;9.18;;;;;;;;;;4976602;28;20075;-75
2022/03/18 08:45:00;;;;;;;12.38;8.57;;;;;;;;;;4971549;28;20035;-76
2022/03/18 08:47:26;;;;;;;11.25;8.90;;;;;;;;;;4968050;28;20034;-75
2022/03/18 08:49:52;;;;;;;14.40;9.38;;;;;;;;;;4958156;28;20058;-75
2022/03/18 08:52:18;;;;;;;16.95;8.57;;;;;;;;;;4971448;28;20418;-75
2022/03/18 08:54:44;;;;;;;17.63;8.40;;;;;;;;;;4946596;28;20115;-74
2022/03/18 08:57:11;;;;;;;15.82;8.55;;;;;;;;;;4974163;28;20037;-74
2022/03/18 08:59:37;;;;;;;14.80;9.20;;;;;;;;;;4974332;28;20085;-75
2022/03/18 09:02:03;;;;;;;13.18;8.80;;;;;;;;;;4949926;28;20031;-75
2022/03/18 09:04:29;;;;;;;18.98;8.80;;;;;;;;;;4975966;28;20130;-74
2022/03/18 09:06:56;;;;;;;12.57;8.90;;;;;;;;;;4971919;28;20047;-75
2022/03/18 09:09:23;;;;;;;11.98;8.35;;;;;;;;;;4956940;28;20062;-74
2022/03/18 09:11:49;;;;;;;13.30;8.20;;;;;;;;;;4974932;28;20027;-74
2022/03/18 09:14:15;;;;;;;13.60;8.52;;;;;;;;;;4970423;28;20037;-74
2022/03/18 09:16:42;;;;;;;14.50;9.10;;;;;;;;;;4972408;28;20118;-74
2022/03/18 09:19:08;;;;;;;12.57;8.45;;;;;;;;;;4977087;28;20053;-74
2022/03/18 09:21:35;;;;;;;12.07;8.70;;;;;;;;;;4963208;28;20027;-73
2022/03/18 09:24:01;;;;;;;17.40;8.25;;;;;;;;;;4963073;28;20023;-74
2022/03/18 09:26:28;;;;;;;13.98;8.63;;;;;;;;;;4964774;28;20022;-75
2022/03/18 09:28:54;;;;;;;15.38;8.30;;;;;;;;;;4979264;28;20106;-75
2022/03/18 09:31:20;;;;;;;14.07;8.68;;;;;;;;;;4948181;28;20061;-71
2022/03/18 09:33:47;;;;;;;12.32;8.50;;;;;;;;;;4972084;28;20456;-78
2022/03/18 09:36:18;;;;;;;12.55;8.73;;;;;;;;;;4967012;28;20430;-74
2022/03/18 09:38:45;;;;;;;16.95;9.55;;;;;;;;;;4939787;29;20482;-72
2022/03/18 09:41:11;;;;;;;13.23;9.00;;;;;;;;;;4957163;29;20031;-75
2022/03/18 09:43:38;;;;;;;14.75;8.52;;;;;;;;;;4958114;29;20080;-74
2022/03/18 09:46:24;;;;;;;17.55;9.80;;;;;;;;;;4961317;28;20034;-76
2022/03/18 09:48:51;;;;;;;18.13;11.95;;;;;;;;;;4957207;29;20032;-71
2022/03/18 09:51:18;;;;;;;18.90;11.50;;;;;;;;;;4961112;28;20019;-73
2022/03/18 09:53:49;;;;;;;48.10;25.63;;;;;;;;;;4973408;28;20050;-71
2022/03/18 09:56:15;;;;;;;18.42;10.57;;;;;;;;;;4981882;28;20051;-72
2022/03/18 09:58:41;;;;;;;13.90;9.32;;;;;;;;;;4974355;28;20043;-74
2022/03/18 10:01:07;;;;;;;19.55;10.63;;;;;;;;;;4952820;28;20058;-74
2022/03/18 10:03:36;;;;;;;19.60;11.55;;;;;;;;;;4973912;28;20031;-74
2022/03/18 10:06:04;;;;;;;18.00;10.85;;;230.90;1536.00;;;;;;4974665;28;20050;-74
2022/03/18 10:08:35;;;;;;;17.30;9.93;;;230.80;1561.60;;;;;;4971274;28;20023;-73
2022/03/18 10:11:14;;;;;;;18.75;9.95;;;230.40;1587.20;;;;;;4978858;28;20031;-74
2022/03/18 10:14:09;;;;;;;19.02;13.50;;;230.40;1587.20;;;;;;4977376;28;20500;-74
2022/03/18 10:16:40;;;;;;;15.57;8.80;;;230.70;1536.00;;;;;;4945639;28;20121;-75
2022/03/18 10:19:22;;;;;;;30.05;19.05;;;230.70;1561.60;;;;;;4964530;28;20046;-71
2022/03/18 10:21:58;;;;;;;15.63;10.57;;;230.70;1536.00;;;;;;4950394;28;20054;-74
2022/03/18 10:24:31;;;;;;;15.95;11.52;;;230.80;1536.00;;;;;;4970179;28;20031;-73
2022/03/18 10:27:20;;;;;;;16.55;10.27;;;230.80;1536.00;;;;;;4972906;28;20038;-72
2022/03/18 10:29:53;;;;;;;19.00;10.38;;;230.80;1510.40;;;;;;4964944;28;20058;-70
2022/03/18 10:32:53;;;;;;;17.77;10.25;;;230.80;1536.00;;;;;;4973682;28;20396;-72
2022/03/18 10:38:28;;;;;;;13.82;9.35;;;230.80;1561.60;;;;;;4960861;28;20046;-70
2022/03/18 10:40:58;;;;;;;16.45;10.10;;;230.70;1536.00;;;;;;4964922;28;20377;-71
2022/03/18 10:43:24;;;;;;;14.10;10.07;;;230.80;1536.00;;;;;;4955050;29;20102;-70
2022/03/18 10:46:13;;;;;;;16.77;9.13;;;231.00;1536.00;;;;;;4954446;28;20051;-70
2022/03/18 10:48:39;;;;;;;14.82;9.85;;;231.00;1536.00;;;;;;4944305;28;20058;-71
2022/03/18 10:51:11;;;;;;;17.98;10.65;;;230.80;1536.00;;;;;;4976333;28;20035;-72
2022/03/18 10:53:37;;;;;;;25.20;9.98;;;231.10;1561.60;;;;;;4973263;28;20046;-72
2022/03/18 10:56:04;;;;;;;20.67;10.07;;;230.70;1536.00;;;;;;4965908;28;20031;-74
2022/03/18 10:58:34;;;;;;;16.25;10.02;;;230.50;1536.00;;;;;;4971308;28;20392;-73
2022/03/18 11:01:01;;;;;;;15.80;9.70;;;230.60;1536.00;;;;;;4969437;28;20030;-73
2022/03/18 11:03:28;;;;;;;25.30;10.15;;;230.80;1536.00;;;;;;4970774;28;20062;-73
2022/03/18 11:05:54;;;;;;;14.40;9.82;;;230.50;1536.00;;;;;;4968393;28;20167;-73
2022/03/18 11:08:27;;;;;;;17.58;10.10;;;230.50;1536.00;;;;;;4963977;28;20027;-75
2022/03/18 11:11:10;;;;;;;21.80;9.80;;;230.60;1510.40;;;;;;4967742;28;20110;-73
2022/03/18 11:14:04;;;;;;;17.52;9.80;;;230.80;1510.40;;;;;;4979477;28;20118;-70
2022/03/18 11:16:33;;;;;;;18.48;9.93;;;;;;;;;;4938637;28;20107;-70
2022/03/18 11:19:01;;;;;;;12.75;8.75;;;231.20;1484.80;;;;;;4955752;28;20078;-70
2022/03/18 11:21:46;;;;;;;15.50;8.85;;;205.50;1459.20;;;;;;4958503;28;20446;-72
2022/03/18 11:24:25;;;;;;;15.20;9.25;;;230.50;1484.80;;;;;;4956644;28;20079;-71
2022/03/18 11:26:56;;;;;;;12.88;8.98;;;230.70;1510.40;;;;;;4947359;28;20101;-71
2022/03/18 11:29:26;;;;;;;15.07;9.35;;;230.90;1510.40;;;;;;4949048;29;20082;-73
2022/03/18 11:32:09;;;;;;;15.88;8.75;;;231.00;1459.20;;;;;;4965907;28;20060;-74
2022/03/18 11:34:56;;;;;;;16.05;10.10;;;230.60;1484.80;;;;;;4969537;28;20110;-72
2022/03/18 11:37:25;;;;;;;15.57;9.48;;;230.40;1484.80;;;;;;4960335;28;20043;-73
2022/03/18 11:39:51;;;;;;;18.98;9.60;;;230.50;1459.20;;;;;;4957171;29;20016;-74
2022/03/18 11:42:19;;;;;;;14.60;8.32;;;230.40;1484.80;;;;;;4969321;28;20078;-73
2022/03/18 11:44:58;;;;;;;13.60;8.93;;;205.70;1484.80;;;;;;4975264;28;20109;-74
2022/03/18 11:47:30;;;;;;;15.05;8.65;;;205.70;1459.20;;;;;;4973835;28;20491;-75
2022/03/18 11:50:37;;;;;;;13.77;8.70;;;205.70;1459.20;;;;;;4969554;28;20550;-76
2022/03/18 11:53:03;;;;;;;16.65;8.35;;;205.60;1433.60;;;;;;4953330;28;20046;-74
2022/03/18 11:55:29;;;;;;;13.82;8.88;;;205.70;1484.80;;;;;;4965052;28;20030;-75
2022/03/18 11:57:55;;;;;;;14.05;8.45;;;230.70;1484.80;;;;;;4949779;28;20038;-74
2022/03/18 12:00:32;;;;;;;12.70;8.70;;;230.50;1459.20;;;;;;4971716;28;20030;-73
2022/03/18 12:03:00;;;;;;;12.85;8.85;;;230.60;1459.20;;;;;;4965299;28;20034;-73
2022/03/18 12:05:32;;;;;;;17.58;9.82;;;230.70;1433.60;;;;;;4969434;28;20043;-71
2022/03/18 12:08:03;;;;;;;13.27;8.35;;;230.70;1408.00;;;;;;4962218;28;20083;-71
2022/03/18 12:10:37;;;;;;;14.38;8.82;;;230.60;1408.00;;;;;;4968607;28;20034;-71
2022/03/18 12:13:11;;;;;;;;;;;230.70;1459.20;;;;;;4971932;28;20023;-70
2022/03/18 12:15:39;;;;;;;13.32;7.95;;;230.60;1433.60;;;;;;4952061;28;19916;-72
2022/03/18 12:18:06;;;;;;;12.88;8.13;;;230.60;1408.00;;;;;;4940903;28;20031;-70
2022/03/18 12:20:37;;;;;;;11.90;7.93;;;230.50;1408.00;;;;;;4966803;28;20085;-70
2022/03/18 12:23:05;;;;;;;12.35;9.05;;;230.60;1408.00;;;;;;4971995;28;20034;-70
2022/03/18 12:25:31;;;;;;;11.40;8.05;;;230.70;1408.00;;;;;;4978975;28;20114;-71
2022/03/18 12:27:58;;;;;;;15.40;8.20;;;230.60;1382.40;;;;;;4961041;28;20063;-70
2022/03/18 12:30:29;;;;;;;20.60;7.60;;;230.50;1408.00;;;;;;4963673;28;20034;-72
2022/03/18 12:32:59;;;;;;;12.60;8.00;;;230.40;1382.40;;;;;;4977304;28;20046;-76
2022/03/18 12:35:36;;;;;;;14.18;9.40;;;230.50;1408.00;;;;;;4938115;28;20060;-77
2022/03/18 12:38:06;;;;;;;17.95;10.57;;;230.60;1408.00;;;;;;4947924;28;20039;-74
2022/03/18 12:40:33;;;;;;;11.27;7.88;;;230.70;1408.00;;;;;;4958005;28;20019;-73
2022/03/18 12:43:02;;;;;;;19.98;10.63;;;230.50;1382.40;;;;;;4975169;28;20037;-72
2022/03/18 12:45:36;;;;;;;11.13;8.48;;;230.60;1408.00;;;;;;4973665;28;20512;-71
2022/03/18 12:48:04;;;;;;;14.15;9.45;;;230.60;1382.40;;;;;;4975519;28;20039;-74
2022/03/18 12:50:35;;;;;;;14.15;9.10;;;230.50;1408.00;;;;;;4953940;28;20026;-74
2022/03/18 12:53:25;;;;;;;12.57;8.10;;;230.60;1408.00;;;;;;4953936;28;20485;-72
2022/03/18 12:56:22;;;;;;;13.32;9.52;;;230.60;1382.40;;;;;;4977278;28;20020;-72